Latest Weather Observations for Macquarie Island

IDT60801

Issued at 1:01 pm EST Monday 30 May 2016 (issued every 30 minutes, with the page automatically refreshed every 10 minutes)

About weather observations | Map of weather stations | Latest weather observations for TAS | Other Formats
Station Details ID: 300004 Name: MACQUARIE ISLAND Lat: -54.50 Lon: 158.94 Height: 6.0 m
Data from the previous 72 hours. | See also: Recent months at Macquarie Island
Date/Time
EST
Temp
°C
App
Temp
°C
Dew
Point
Rel
Hum
%
Delta-T
°C
Wind Press
QNH
hPa
Press
MSL
hPa
Rain
since 9 am
mm
Dir
 
Spd
km/h
Gust
km/h
Spd
kts
Gust
kts
30/01:00pm 3.7 -6.2 -3.8 58 2.6 WSW 39 63 21 34 1006.5 - 0.8
30/12:30pm 3.4 -4.2 -2.3 66 2.0 WSW 28 56 15 30 1006.3 - 0.8
30/12:00pm 3.3 -5.6 -2.2 67 1.9 WSW 35 65 19 35 1005.9 1006.2 0.8
30/11:39am 2.7 -6.0 -0.2 81 1.1 WSW 35 54 19 29 1006.0 - 0.8
30/11:38am 2.7 -6.7 -0.1 82 1.0 WSW 39 54 21 29 1006.0 - 0.8
30/11:30am 2.1 -3.5 -0.3 84 0.9 SW 19 35 10 19 1006.0 - 0.8
30/11:29am 2.1 -3.7 -0.3 84 0.9 SW 20 35 11 19 1005.9 - 0.8
30/11:25am 2.2 -7.3 -0.7 81 1.0 WSW 39 67 21 36 1006.1 - 0.6
30/11:15am 3.8 -5.4 -1.4 69 1.9 W 37 61 20 33 1005.3 - 0.6
30/11:00am 3.8 -4.2 -2.0 66 2.1 WSW 30 52 16 28 1005.5 - 0.6
30/10:30am 3.8 -3.2 -0.6 73 1.6 W 26 54 14 29 1005.3 - 0.6
30/10:26am 3.8 -3.2 -0.6 73 1.6 WSW 26 41 14 22 1005.3 - 0.6
30/10:14am 3.7 -5.7 0.1 77 1.4 W 39 67 21 36 1005.1 - 0.6
30/10:00am 3.6 -3.7 0.1 78 1.3 W 28 46 15 25 1005.0 - 0.6
30/09:45am 3.5 -3.7 0.6 81 1.1 WSW 28 44 15 24 1005.0 - 0.6
30/09:37am 3.5 -5.3 1.1 84 0.9 W 37 59 20 32 1004.7 - 0.6
30/09:30am 3.4 -3.5 -0.1 78 1.3 WSW 26 44 14 24 1004.8 - 0.6
30/09:00am 3.5 -4.6 0.7 82 1.1 W 33 65 18 35 1004.2 1004.5 3.0
30/08:30am 3.0 -4.1 1.1 87 0.7 W 28 50 15 27 1003.8 - 3.0
30/08:22am 2.6 -3.9 0.5 86 0.8 WSW 24 39 13 21 1004.1 - 3.0
30/08:07am 3.6 -7.0 0.5 80 1.2 W 46 65 25 35 1003.6 - 2.8
30/08:00am 3.6 -7.8 0.8 82 1.1 W 50 61 27 33 1003.6 - 2.8
30/07:36am 3.5 -6.5 1.2 85 0.9 W 43 63 23 34 1003.2 - 2.8
30/07:30am 3.3 -6.9 1.0 85 0.9 W 44 59 24 32 1003.2 - 2.8
30/07:00am 3.8 -6.9 0.1 77 1.4 W 46 56 25 30 1002.9 - 2.6
30/06:30am 3.7 -7.0 0.4 79 1.2 W 46 61 25 33 1003.0 - 2.6
30/06:00am 2.9 -8.2 0.1 82 1.0 W 48 59 26 32 1002.7 1003.0 2.6
30/05:30am 3.1 -7.2 0.3 82 1.0 W 44 54 24 29 1002.6 - 2.6
30/05:00am 3.0 -7.6 0.6 84 0.9 W 46 56 25 30 1002.4 - 2.6
30/04:30am 3.0 -6.2 1.2 88 0.7 W 39 52 21 28 1002.3 - 2.4
30/04:00am 3.3 -2.9 2.0 91 0.5 W 24 46 13 25 1002.1 - 2.4
30/03:30am 3.8 -3.8 2.8 93 0.4 W 32 50 17 27 1001.9 - 2.2
30/03:15am 3.9 -3.3 2.9 93 0.4 W 30 48 16 26 1001.8 - 2.0
30/03:00am 4.3 -3.4 3.4 94 0.4 W 33 46 18 25 1001.6 1001.9 1.8
30/02:49am 4.7 -4.0 4.0 95 0.3 W 39 48 21 26 1001.6 - 1.8
30/02:30am 5.1 -3.1 4.5 96 0.3 NW 37 43 20 23 1001.5 - 1.2
30/02:00am 5.1 -3.5 4.4 95 0.3 NW 39 44 21 24 1001.7 - 1.0
30/01:30am 5.1 -3.5 4.4 95 0.3 NW 39 46 21 25 1002.1 - 1.0
30/01:00am 5.0 -4.0 4.3 95 0.3 NW 41 48 22 26 1002.4 - 0.8
30/12:30am 4.9 -3.8 4.2 95 0.3 NW 39 46 21 25 1002.6 - 0.6
30/12:00am 4.9 -3.4 4.0 94 0.4 NW 37 44 20 24 1002.9 1003.2 0.4
 
Date/Time
EST
Temp
°C
App
Temp
°C
Dew
Point
Rel
Hum
%
Delta-T
°C
Wind Press
QNH
hPa
Press
MSL
hPa
Rain
since 9 am
mm
Dir
 
Spd
km/h
Gust
km/h
Spd
kts
Gust
kts
29/11:30pm 4.8 -3.6 3.6 92 0.5 NW 37 46 20 25 1003.2 - 0.4
29/11:00pm 4.8 -4.0 3.5 91 0.5 NW 39 44 21 24 1003.6 - 0.2
29/10:30pm 4.7 -3.8 3.4 91 0.5 NW 37 44 20 24 1003.8 - 0.2
29/10:00pm 4.6 -5.1 3.1 90 0.6 WNW 43 52 23 28 1004.0 - 0.0
29/09:30pm 4.5 -4.7 3.5 93 0.4 NW 41 46 22 25 1004.4 - 0.0
29/09:00pm 4.3 -4.2 3.4 94 0.4 NW 37 48 20 26 1004.7 1005.0 0.0
29/08:30pm 4.2 -5.1 3.2 93 0.4 WNW 41 52 22 28 1004.7 - 0.0
29/08:00pm 4.1 -5.6 3.1 93 0.4 WNW 43 52 23 28 1004.9 - 0.0
29/07:30pm 4.2 -5.1 3.0 92 0.5 NW 41 48 22 26 1005.0 - 0.0
29/07:00pm 4.0 -4.6 2.7 91 0.5 NW 37 43 20 23 1005.3 - 0.0
29/06:30pm 3.6 -4.3 2.1 90 0.6 WNW 33 39 18 21 1005.5 - 0.0
29/06:00pm 3.3 -5.1 1.5 88 0.7 WNW 35 43 19 23 1005.6 1005.9 0.0
29/05:30pm 3.0 -5.5 0.9 86 0.8 WNW 35 44 19 24 1005.6 - 0.0
29/05:00pm 2.9 -5.2 0.8 86 0.8 WNW 33 41 18 22 1005.7 - 0.0
29/04:30pm 2.9 -5.6 0.6 85 0.9 WNW 35 43 19 23 1005.8 - 0.0
29/04:00pm 3.0 -7.0 0.7 85 0.9 WNW 43 52 23 28 1005.8 - 0.0
29/03:30pm 3.1 -6.9 1.0 86 0.8 WNW 43 52 23 28 1005.8 - 0.0
29/03:00pm 2.6 -5.5 1.1 90 0.6 WNW 33 43 18 23 1006.1 1006.4 0.0
29/02:30pm 2.2 -6.3 1.0 92 0.5 W 35 46 19 25 1006.1 - 0.0
29/02:00pm 2.1 -5.8 0.9 92 0.5 WNW 32 41 17 22 1006.0 - 0.0
29/01:30pm 2.0 -5.6 0.7 91 0.5 WNW 30 35 16 19 1005.9 - 0.0
29/01:00pm 2.6 -4.2 1.1 90 0.6 WNW 26 32 14 17 1006.2 - 0.0
29/12:30pm 2.9 -2.7 1.0 87 0.7 W 20 26 11 14 1006.3 - 0.0
29/12:00pm 3.1 -2.5 1.2 87 0.7 W 20 28 11 15 1006.4 1006.7 0.0
29/11:30am 2.7 -3.0 0.8 87 0.7 W 20 26 11 14 1006.5 - 0.0
29/11:00am 2.4 -2.4 0.5 87 0.7 SW 15 24 8 13 1006.5 - 0.0
29/10:30am 1.8 -3.0 0.3 90 0.6 SW 15 26 8 14 1006.8 - 0.0
29/10:00am 1.5 -2.2 0.2 91 0.5 WSW 9 15 5 8 1006.9 - 0.0
29/09:30am 1.5 -2.5 0.3 92 0.4 WSW 11 17 6 9 1007.0 - 0.0
29/09:00am 1.3 -1.8 0.0 91 0.5 SW 6 13 3 7 1006.8 1007.1 1.2
29/08:30am 1.2 -2.9 0.0 92 0.4 SSW 11 17 6 9 1006.7 - 1.2
29/08:00am 1.2 -3.3 0.0 92 0.4 SSW 13 19 7 10 1006.7 - 1.2
29/07:30am 1.1 -2.6 -0.2 91 0.5 SW 9 13 5 7 1006.5 - 1.2
29/07:00am 1.5 -1.2 0.0 90 0.5 SSW 4 13 2 7 1006.4 - 1.2
29/06:30am 1.8 -3.4 0.3 90 0.6 S 17 20 9 11 1006.3 - 1.2
29/06:00am 1.3 -2.8 0.1 92 0.4 S 11 17 6 9 1006.2 1006.5 1.2
29/05:30am 1.7 -3.8 0.8 94 0.3 S 19 24 10 13 1006.1 - 1.2
29/05:00am 2.1 -2.9 1.2 94 0.3 S 17 22 9 12 1006.0 - 1.0
29/04:30am 2.5 -3.8 1.5 93 0.4 S 24 30 13 16 1005.7 - 1.0
29/04:00am 2.5 -4.2 1.6 94 0.3 S 26 32 14 17 1005.6 - 1.0
29/03:30am 2.8 -3.8 1.8 93 0.4 S 26 32 14 17 1005.6 - 1.0
29/03:00am 3.1 -3.1 2.1 93 0.4 S 24 30 13 16 1005.7 1006.0 1.0
29/02:30am 3.3 -2.9 2.4 94 0.4 S 24 30 13 16 1005.7 - 1.0
29/02:00am 3.4 -3.6 2.2 92 0.5 SSE 28 30 15 16 1005.3 - 1.0
29/01:30am 3.4 -3.2 2.2 92 0.5 SSE 26 30 14 16 1005.2 - 1.0
29/01:00am 3.4 -3.5 2.5 94 0.4 SSE 28 35 15 19 1005.3 - 1.0
29/12:30am 3.4 -3.9 2.5 94 0.4 SSE 30 35 16 19 1005.2 - 1.0
29/12:00am 3.4 -3.9 2.5 94 0.4 S 30 37 16 20 1005.0 1005.3 1.0
 
Date/Time
EST
Temp
°C
App
Temp
°C
Dew
Point
Rel
Hum
%
Delta-T
°C
Wind Press
QNH
hPa
Press
MSL
hPa
Rain
since 9 am
mm
Dir
 
Spd
km/h
Gust
km/h
Spd
kts
Gust
kts
28/11:30pm 3.5 -3.8 2.5 93 0.4 S 30 35 16 19 1005.0 - 0.8
28/11:00pm 3.6 -3.7 2.7 94 0.4 S 30 37 16 20 1004.9 - 0.8
28/10:30pm 3.7 -3.9 2.8 94 0.4 S 32 39 17 21 1004.7 - 0.8
28/10:00pm 3.9 -3.7 2.9 93 0.4 SSE 32 37 17 20 1004.5 - 0.8
28/09:30pm 3.8 - - - - S 26 33 14 18 1004.7 - 0.8
28/09:00pm 3.9 - 4.3 - - S 26 32 14 17 1004.7 1005.0 0.8
28/08:30pm 4.0 -2.7 1.7 85 0.9 S 26 33 14 18 1004.6 - 0.8
28/08:00pm 4.0 - - - - S 24 35 13 19 1004.4 - 0.8
28/07:30pm 4.0 -2.9 2.7 91 0.5 S 28 35 15 19 1004.3 - 0.8
28/07:00pm 4.2 -1.9 2.7 90 0.6 S 24 32 13 17 1004.2 - 0.8
28/06:30pm 4.3 -1.0 2.8 90 0.6 S 20 28 11 15 1004.2 - 0.8
28/06:00pm 4.5 0.2 3.2 91 0.5 S 15 20 8 11 1004.2 1004.5 0.8
28/05:30pm 4.4 1.8 3.1 91 0.5 SSW 6 11 3 6 1004.2 - 0.8
28/05:00pm 4.4 1.6 3.1 91 0.5 SSW 7 15 4 8 1004.0 - 0.8
28/04:30pm 4.4 2.5 3.1 91 0.5 SSW 2 11 1 6 1003.8 - 0.8
28/04:00pm 4.6 1.8 3.3 91 0.5 SSW 7 15 4 8 1003.9 - 0.8
28/03:30pm 4.9 1.4 3.6 91 0.5 S 11 19 6 10 1003.9 - 0.4
28/03:00pm 4.8 2.3 3.5 91 0.5 SE 6 11 3 6 1004.0 1004.3 0.2
28/02:30pm 4.6 0.3 3.3 91 0.5 WSW 15 20 8 11 1004.0 - 0.0
28/02:00pm 4.8 0.5 3.3 90 0.6 SW 15 22 8 12 1003.9 - 0.0
28/01:30pm 4.8 1.6 3.3 90 0.6 SSW 9 13 5 7 1003.9 - 0.0
28/01:00pm 4.8 2.6 3.5 91 0.5 S 4 13 2 7 1003.9 - 0.0
28/12:30pm 4.8 3.0 3.6 92 0.5 W 2 7 1 4 1004.0 - 0.0
28/12:00pm 4.4 1.2 3.2 92 0.5 SW 9 15 5 8 1004.3 1004.6 0.0
28/11:30am 4.6 1.5 3.4 92 0.5 NW 9 13 5 7 1004.6 - 0.0
28/11:00am 4.3 2.8 3.1 92 0.5 CALM 0 0 0 0 1004.9 - 0.0
28/10:30am 4.2 2.3 3.0 92 0.5 ESE 2 6 1 3 1005.0 - 0.0
28/10:00am 4.2 2.7 3.0 92 0.5 CALM 0 6 0 3 1005.2 - 0.0
28/09:30am 3.6 2.0 2.4 92 0.5 CALM 0 0 0 0 1005.6 - 0.0
28/09:00am 3.4 1.8 2.2 92 0.5 CALM 0 6 0 3 1005.7 1006.0 0.4
28/08:30am 3.0 1.3 1.8 92 0.5 CALM 0 0 0 0 1005.9 - 0.2
28/08:00am 3.4 -0.3 2.2 92 0.5 NNE 11 13 6 7 1005.8 - 0.2
28/07:30am 2.5 -1.7 1.6 94 0.3 N 13 19 7 10 1005.9 - 0.2
28/07:00am 2.3 -1.1 1.6 95 0.3 NW 9 9 5 5 1005.9 - 0.2
28/06:30am 2.5 0.8 1.6 94 0.3 CALM 0 0 0 0 1006.0 - 0.2
28/06:00am 2.9 -0.1 2.2 95 0.3 E 7 9 4 5 1005.9 1006.2 0.2
28/05:30am 2.6 0.2 1.9 95 0.3 E 4 9 2 5 1006.1 - 0.2
28/05:00am 2.8 1.1 2.1 95 0.3 CALM 0 0 0 0 1006.3 - 0.2
28/04:30am 2.2 0.4 1.5 95 0.3 CALM 0 0 0 0 1006.5 - 0.2
28/04:00am 2.2 0.4 1.5 95 0.3 CALM 0 0 0 0 1006.6 - 0.2
28/03:30am 2.6 0.9 1.9 95 0.3 CALM 0 0 0 0 1006.7 - 0.2
28/03:00am 2.6 0.2 1.9 95 0.3 NW 4 9 2 5 1007.1 1007.4 0.2
28/02:30am 2.8 0.4 2.1 95 0.3 WNW 4 9 2 5 1007.5 - 0.2
28/02:00am 2.9 -1.2 2.3 96 0.2 NW 13 15 7 8 1007.6 - 0.2
28/01:30am 3.1 -1.0 2.5 96 0.2 NW 13 17 7 9 1007.8 - 0.2
28/01:00am 3.2 -0.1 2.6 96 0.2 NW 9 13 5 7 1007.9 - 0.2
28/12:30am 3.3 -0.3 2.7 96 0.2 NNW 11 13 6 7 1008.1 - 0.2
28/12:00am 3.3 -0.3 2.7 96 0.2 NNW 11 13 6 7 1008.1 1008.4 0.2
 
Date/Time
EST
Temp
°C
App
Temp
°C
Dew
Point
Rel
Hum
%
Delta-T
°C
Wind Press
QNH
hPa
Press
MSL
hPa
Rain
since 9 am
mm
Dir
 
Spd
km/h
Gust
km/h
Spd
kts
Gust
kts
27/11:30pm 2.9 -0.1 2.3 96 0.2 WSW 7 9 4 5 1008.3 - 0.2
27/11:00pm 3.0 1.4 2.4 96 0.2 CALM 0 0 0 0 1008.5 - 0.0
27/10:30pm 3.4 1.9 2.8 96 0.2 CALM 0 0 0 0 1008.7 - 0.0
27/10:00pm 3.4 0.5 2.8 96 0.2 SE 7 9 4 5 1008.8 - 0.0
27/09:30pm 3.4 0.2 2.8 96 0.2 SE 9 9 5 5 1009.0 - 0.0
27/09:00pm 3.3 0.0 2.7 96 0.2 SSE 9 9 5 5 1009.1 1009.4 0.0
27/08:30pm 3.4 0.2 2.8 96 0.2 SSE 9 9 5 5 1009.2 - 0.0
27/08:00pm 3.3 0.0 2.7 96 0.2 SSE 9 11 5 6 1009.2 - 0.0
27/07:30pm 3.4 0.2 2.8 96 0.2 SE 9 11 5 6 1009.1 - 0.0
27/07:00pm 3.4 -0.2 2.7 95 0.3 SSE 11 13 6 7 1009.2 - 0.0
27/06:30pm 3.4 -0.6 2.8 96 0.2 SSE 13 15 7 8 1009.1 - 0.0
27/06:00pm 3.2 -1.2 2.6 96 0.2 SSE 15 17 8 9 1009.1 1009.4 0.0
27/05:30pm 3.1 -1.7 2.5 96 0.2 SSE 17 17 9 9 1009.2 - 0.0
27/05:00pm 3.1 -1.7 2.5 96 0.2 SSE 17 17 9 9 1009.1 - 0.0
27/04:30pm 3.1 -1.3 2.5 96 0.2 SSE 15 17 8 9 1009.1 - 0.0
27/04:00pm 3.0 -1.5 2.4 96 0.2 SSE 15 15 8 8 1009.1 - 0.0
27/03:30pm 3.0 -1.5 2.4 96 0.2 SSE 15 17 8 9 1009.0 - 0.0
27/03:00pm 3.1 -2.1 2.4 95 0.3 SSE 19 19 10 10 1008.9 1009.2 0.0
27/02:30pm 3.0 -2.4 2.4 96 0.2 SSE 20 24 11 13 1008.8 - 0.0
27/02:00pm 3.0 -2.2 2.4 96 0.2 SSE 19 20 10 11 1008.8 - 0.0
27/01:30pm 3.0 -3.2 2.4 96 0.2 SSE 24 26 13 14 1008.7 - 0.0

Other Formats:

Comma delimited format used in spreadsheet applications
http://www.bom.gov.au/fwo/IDT60801/IDT60801.94998.axf

JavaScript Object Notation format (JSON) in row-major order
http://www.bom.gov.au/fwo/IDT60801/IDT60801.94998.json